createdAt,value
2022-09-13T00:10:51.871Z,2.50
2022-09-13T00:24:51.860Z,2.60
2022-09-13T00:38:51.906Z,2.20
2022-09-13T00:52:51.925Z,2.50
2022-09-13T01:06:51.892Z,1.80
2022-09-13T01:20:52.088Z,1.60
2022-09-13T01:34:52.090Z,1.70
2022-09-13T01:48:52.097Z,3.60
2022-09-13T02:02:52.087Z,2.20
2022-09-13T02:16:52.234Z,2.10
2022-09-13T02:30:52.095Z,2.50
2022-09-13T02:44:52.081Z,3.70
2022-09-13T02:58:52.105Z,2.80
2022-09-13T03:12:52.089Z,2.10
2022-09-13T03:26:52.120Z,1.90
2022-09-13T03:40:52.087Z,2.50
2022-09-13T03:54:52.115Z,1.90
2022-09-13T04:08:52.097Z,5.50
2022-09-13T04:22:52.154Z,4.90
2022-09-13T04:36:52.141Z,6.40
2022-09-13T04:51:52.153Z,4.30
2022-09-13T05:06:52.155Z,4.50
2022-09-13T05:22:52.180Z,6.70
2022-09-13T05:37:52.142Z,3.90
2022-09-13T05:52:52.196Z,4.70
2022-09-13T06:07:52.188Z,2.85
2022-09-13T06:22:52.193Z,3.80
2022-09-13T06:37:52.236Z,3.70
2022-09-13T06:52:52.222Z,3.50
2022-09-13T07:07:52.241Z,2.60
2022-09-13T07:22:52.215Z,2.20
2022-09-13T07:37:52.239Z,2.30
2022-09-13T07:52:52.266Z,1.30
2022-09-13T08:07:52.262Z,1.80
2022-09-13T08:22:52.288Z,7.70
2022-09-13T08:37:52.279Z,18.00
2022-09-13T08:52:52.286Z,11.50
2022-09-13T09:07:52.338Z,8.20
2022-09-13T09:22:52.370Z,6.60
2022-09-13T09:37:52.314Z,5.50
2022-09-13T09:52:52.360Z,3.90
2022-09-13T10:08:52.464Z,3.20
2022-09-13T10:23:52.472Z,2.90
2022-09-13T10:38:52.476Z,1.90
2022-09-13T10:53:52.473Z,1.90
2022-09-13T11:08:52.480Z,2.60
2022-09-13T11:23:52.497Z,2.30
2022-09-13T11:38:52.521Z,2.00
2022-09-13T11:53:52.477Z,1.70
2022-09-13T12:08:52.486Z,1.10
2022-09-13T12:24:52.498Z,3.80
2022-09-13T12:39:52.537Z,2.20
2022-09-13T12:54:52.501Z,1.30
2022-09-13T13:09:52.518Z,1.60
2022-09-13T13:24:52.528Z,2.60
2022-09-13T13:39:52.594Z,1.40
2022-09-13T13:54:52.527Z,2.40
2022-09-13T14:09:52.545Z,1.10
2022-09-13T14:25:52.742Z,1.90
2022-09-13T14:40:52.736Z,1.70
2022-09-13T14:55:52.744Z,2.20
2022-09-13T15:10:52.804Z,2.40
2022-09-13T15:25:52.838Z,4.10
2022-09-13T15:41:52.855Z,2.50
2022-09-13T15:56:52.849Z,2.20
2022-09-13T16:11:52.843Z,2.20
2022-09-13T16:26:52.837Z,2.20
2022-09-13T16:41:52.843Z,2.10
2022-09-13T16:56:52.848Z,2.20
2022-09-13T17:11:52.954Z,2.70
2022-09-13T17:26:52.880Z,4.50
2022-09-13T17:41:52.861Z,4.20
2022-09-13T17:56:52.875Z,2.50
2022-09-13T18:11:52.872Z,3.90
2022-09-13T18:25:52.878Z,3.10
2022-09-13T18:39:52.992Z,3.70
2022-09-13T18:53:52.906Z,3.40
2022-09-13T19:07:52.901Z,2.90
2022-09-13T19:21:52.922Z,2.70
2022-09-13T19:35:52.885Z,2.80
2022-09-13T19:49:52.958Z,3.70
2022-09-13T20:03:52.968Z,2.90
2022-09-13T20:17:52.956Z,4.40
2022-09-13T20:31:53.002Z,5.20
2022-09-13T20:45:53.022Z,4.50
2022-09-13T20:59:53.024Z,4.00
2022-09-13T21:13:53.084Z,4.20
2022-09-13T21:27:53.197Z,3.70
2022-09-13T21:41:53.172Z,3.20
2022-09-13T21:55:53.177Z,2.80
2022-09-13T22:09:53.169Z,2.80
2022-09-13T22:23:53.189Z,2.20
2022-09-13T22:37:53.229Z,1.80
2022-09-13T22:51:53.229Z,2.30
2022-09-13T23:05:53.246Z,2.20
2022-09-13T23:19:53.206Z,1.40
2022-09-13T23:33:53.237Z,1.40
2022-09-13T23:47:53.255Z,2.10
